sensor_id;sensor_type;location;lat;lon;timestamp;pressure;altitude;pressure_sealevel;temperature;humidity
75166;BME280;63747;48.042;10.088;2022-10-17T00:05:01;95825.69;;;10.24;69.22
75166;BME280;63747;48.042;10.088;2022-10-17T00:08:02;95827.22;;;10.09;69.73
75166;BME280;63747;48.042;10.088;2022-10-17T00:11:06;95832.47;;;10.01;70.00
75166;BME280;63747;48.042;10.088;2022-10-17T00:14:08;95833.16;;;10.03;70.07
75166;BME280;63747;48.042;10.088;2022-10-17T00:21:14;95842.06;;;10.02;69.96
75166;BME280;63747;48.042;10.088;2022-10-17T00:24:15;95847.38;;;10.02;69.67
75166;BME280;63747;48.042;10.088;2022-10-17T00:27:16;95847.03;;;9.97;70.00
75166;BME280;63747;48.042;10.088;2022-10-17T00:30:17;95839.53;;;9.92;69.84
75166;BME280;63747;48.042;10.088;2022-10-17T00:33:18;95848.09;;;9.86;70.06
75166;BME280;63747;48.042;10.088;2022-10-17T00:36:22;95850.06;;;9.84;70.18
75166;BME280;63747;48.042;10.088;2022-10-17T00:39:23;95857.78;;;9.77;70.27
75166;BME280;63747;48.042;10.088;2022-10-17T00:42:25;95847.97;;;9.70;70.40
75166;BME280;63747;48.042;10.088;2022-10-17T00:45:28;95841.31;;;9.66;70.58
75166;BME280;63747;48.042;10.088;2022-10-17T00:48:29;95846.91;;;9.63;70.72
75166;BME280;63747;48.042;10.088;2022-10-17T00:51:48;95849.41;;;9.64;70.85
75166;BME280;63747;48.042;10.088;2022-10-17T00:54:55;95843.72;;;9.59;70.82
75166;BME280;63747;48.042;10.088;2022-10-17T00:57:59;95844.94;;;9.65;70.83
75166;BME280;63747;48.042;10.088;2022-10-17T01:01:02;95836.44;;;9.61;71.03
75166;BME280;63747;48.042;10.088;2022-10-17T01:04:03;95838.09;;;9.62;70.87
75166;BME280;63747;48.042;10.088;2022-10-17T01:07:04;95842.56;;;9.62;71.38
75166;BME280;63747;48.042;10.088;2022-10-17T01:10:26;95846.91;;;9.63;71.42
75166;BME280;63747;48.042;10.088;2022-10-17T01:13:36;95840.25;;;9.59;71.32
75166;BME280;63747;48.042;10.088;2022-10-17T01:16:44;95840.84;;;9.52;71.65
75166;BME280;63747;48.042;10.088;2022-10-17T01:30:27;95842.38;;;9.37;72.09
75166;BME280;63747;48.042;10.088;2022-10-17T01:37:36;95838.50;;;9.32;72.27
75166;BME280;63747;48.042;10.088;2022-10-17T01:40:35;95830.56;;;9.32;72.26
75166;BME280;63747;48.042;10.088;2022-10-17T01:43:48;95833.03;;;9.33;72.35
75166;BME280;63747;48.042;10.088;2022-10-17T01:46:59;95833.34;;;9.30;72.52
75166;BME280;63747;48.042;10.088;2022-10-17T01:50:08;95825.16;;;9.23;72.74
75166;BME280;63747;48.042;10.088;2022-10-17T01:53:15;95826.16;;;9.22;72.93
75166;BME280;63747;48.042;10.088;2022-10-17T01:56:21;95816.53;;;9.21;72.90
75166;BME280;63747;48.042;10.088;2022-10-17T01:59:30;95821.13;;;9.19;73.01
75166;BME280;63747;48.042;10.088;2022-10-17T02:02:35;95817.16;;;9.15;73.03
75166;BME280;63747;48.042;10.088;2022-10-17T02:05:39;95815.78;;;9.11;73.10
75166;BME280;63747;48.042;10.088;2022-10-17T02:08:46;95814.13;;;9.10;73.32
75166;BME280;63747;48.042;10.088;2022-10-17T02:22:39;95799.97;;;9.02;73.57
75166;BME280;63747;48.042;10.088;2022-10-17T02:25:49;95805.28;;;9.02;73.52
75166;BME280;63747;48.042;10.088;2022-10-17T02:32:02;95798.44;;;8.99;73.77
75166;BME280;63747;48.042;10.088;2022-10-17T02:35:21;95800.25;;;8.98;73.80
75166;BME280;63747;48.042;10.088;2022-10-17T02:38:26;95800.94;;;9.01;73.93
75166;BME280;63747;48.042;10.088;2022-10-17T02:41:39;95812.06;;;9.04;73.98
75166;BME280;63747;48.042;10.088;2022-10-17T02:44:43;95807.59;;;9.05;73.78
75166;BME280;63747;48.042;10.088;2022-10-17T02:52:03;95814.03;;;9.02;73.92
75166;BME280;63747;48.042;10.088;2022-10-17T02:55:01;95813.19;;;9.02;73.79
75166;BME280;63747;48.042;10.088;2022-10-17T02:58:06;95814.31;;;8.99;73.64
75166;BME280;63747;48.042;10.088;2022-10-17T03:01:09;95815.06;;;8.91;73.79
75166;BME280;63747;48.042;10.088;2022-10-17T03:04:12;95818.97;;;8.87;73.72
75166;BME280;63747;48.042;10.088;2022-10-17T03:07:13;95830.53;;;8.86;73.75
75166;BME280;63747;48.042;10.088;2022-10-17T03:10:21;95835.97;;;8.85;73.80
75166;BME280;63747;48.042;10.088;2022-10-17T03:13:22;95830.16;;;8.81;73.61
75166;BME280;63747;48.042;10.088;2022-10-17T03:16:22;95836.41;;;8.80;73.56
75166;BME280;63747;48.042;10.088;2022-10-17T03:19:27;95832.91;;;8.80;73.71
75166;BME280;63747;48.042;10.088;2022-10-17T03:22:28;95837.38;;;8.79;73.63
75166;BME280;63747;48.042;10.088;2022-10-17T03:25:31;95833.91;;;8.79;73.68
75166;BME280;63747;48.042;10.088;2022-10-17T03:28:32;95841.59;;;8.72;73.80
75166;BME280;63747;48.042;10.088;2022-10-17T03:31:33;95841.91;;;8.69;73.96
75166;BME280;63747;48.042;10.088;2022-10-17T03:34:33;95853.16;;;8.71;73.87
75166;BME280;63747;48.042;10.088;2022-10-17T03:37:34;95845.22;;;8.71;73.75
75166;BME280;63747;48.042;10.088;2022-10-17T03:40:42;95841.34;;;8.65;73.71
75166;BME280;63747;48.042;10.088;2022-10-17T03:43:42;95839.28;;;8.59;73.63
75166;BME280;63747;48.042;10.088;2022-10-17T03:46:43;95848.34;;;8.57;73.57
75166;BME280;63747;48.042;10.088;2022-10-17T03:49:44;95851.25;;;8.54;73.38
75166;BME280;63747;48.042;10.088;2022-10-17T03:52:58;95864.19;;;8.57;73.61
75166;BME280;63747;48.042;10.088;2022-10-17T03:56:18;95866.28;;;8.53;73.61
75166;BME280;63747;48.042;10.088;2022-10-17T03:59:19;95857.97;;;8.48;73.51
75166;BME280;63747;48.042;10.088;2022-10-17T04:02:19;95868.25;;;8.51;73.49
75166;BME280;63747;48.042;10.088;2022-10-17T04:05:20;95866.16;;;8.45;73.55
75166;BME280;63747;48.042;10.088;2022-10-17T04:08:21;95872.28;;;8.46;73.53
75166;BME280;63747;48.042;10.088;2022-10-17T04:11:22;95865.66;;;8.41;73.36
75166;BME280;63747;48.042;10.088;2022-10-17T04:14:23;95873.84;;;8.38;73.41
75166;BME280;63747;48.042;10.088;2022-10-17T04:17:23;95879.28;;;8.37;73.40
75166;BME280;63747;48.042;10.088;2022-10-17T04:20:24;95879.28;;;8.37;73.09
75166;BME280;63747;48.042;10.088;2022-10-17T04:23:25;95881.22;;;8.35;72.72
75166;BME280;63747;48.042;10.088;2022-10-17T04:26:26;95880.97;;;8.28;72.51
75166;BME280;63747;48.042;10.088;2022-10-17T04:29:27;95891.81;;;8.25;72.61
75166;BME280;63747;48.042;10.088;2022-10-17T04:32:29;95892.09;;;8.22;72.53
75166;BME280;63747;48.042;10.088;2022-10-17T04:39:20;95894.88;;;8.11;72.68
75166;BME280;63747;48.042;10.088;2022-10-17T04:42:21;95898.81;;;8.07;72.81
75166;BME280;63747;48.042;10.088;2022-10-17T04:45:30;95892.66;;;8.06;72.56
75166;BME280;63747;48.042;10.088;2022-10-17T04:48:40;95901.03;;;8.02;72.92
75166;BME280;63747;48.042;10.088;2022-10-17T04:51:56;95896.16;;;7.97;72.96
75166;BME280;63747;48.042;10.088;2022-10-17T04:54:57;95897.44;;;7.93;73.04
75166;BME280;63747;48.042;10.088;2022-10-17T04:58:00;95899.22;;;7.93;73.12
75166;BME280;63747;48.042;10.088;2022-10-17T05:01:08;95904.63;;;7.91;73.37
75166;BME280;63747;48.042;10.088;2022-10-17T05:04:09;95903.81;;;7.91;73.27
75166;BME280;63747;48.042;10.088;2022-10-17T05:07:15;95898.66;;;7.89;73.38
75166;BME280;63747;48.042;10.088;2022-10-17T05:10:15;95896.44;;;7.84;73.49
75166;BME280;63747;48.042;10.088;2022-10-17T05:13:16;95894.63;;;7.85;73.51
75166;BME280;63747;48.042;10.088;2022-10-17T05:16:17;95899.91;;;7.85;73.68
75166;BME280;63747;48.042;10.088;2022-10-17T05:19:20;95893.13;;;7.82;73.55
75166;BME280;63747;48.042;10.088;2022-10-17T05:22:31;95888.53;;;7.84;73.58
75166;BME280;63747;48.042;10.088;2022-10-17T05:25:32;95893.53;;;7.87;73.19
75166;BME280;63747;48.042;10.088;2022-10-17T05:28:33;95891.16;;;7.84;73.16
75166;BME280;63747;48.042;10.088;2022-10-17T05:31:46;95901.88;;;7.73;73.50
75166;BME280;63747;48.042;10.088;2022-10-17T05:34:47;95905.88;;;7.68;73.78
75166;BME280;63747;48.042;10.088;2022-10-17T05:37:49;95910.03;;;7.70;73.65
75166;BME280;63747;48.042;10.088;2022-10-17T05:40:50;95918.22;;;7.67;73.89
75166;BME280;63747;48.042;10.088;2022-10-17T05:43:51;95924.47;;;7.66;74.17
75166;BME280;63747;48.042;10.088;2022-10-17T05:46:52;95934.06;;;7.67;74.28
75166;BME280;63747;48.042;10.088;2022-10-17T05:49:53;95939.34;;;7.67;74.03
75166;BME280;63747;48.042;10.088;2022-10-17T05:52:54;95944.03;;;7.54;74.14
75166;BME280;63747;48.042;10.088;2022-10-17T05:55:59;95943.91;;;7.55;74.20
75166;BME280;63747;48.042;10.088;2022-10-17T05:59:00;95942.78;;;7.58;74.26
75166;BME280;63747;48.042;10.088;2022-10-17T06:02:01;95939.44;;;7.66;74.20
75166;BME280;63747;48.042;10.088;2022-10-17T06:05:02;95942.38;;;7.72;74.33
75166;BME280;63747;48.042;10.088;2022-10-17T06:08:03;95951.31;;;7.81;74.33
75166;BME280;63747;48.042;10.088;2022-10-17T06:11:04;95951.88;;;7.84;74.24
75166;BME280;63747;48.042;10.088;2022-10-17T06:14:06;95957.56;;;7.89;74.39
75166;BME280;63747;48.042;10.088;2022-10-17T06:17:07;95960.91;;;7.92;74.29
75166;BME280;63747;48.042;10.088;2022-10-17T06:20:08;95963.00;;;7.98;74.43
75166;BME280;63747;48.042;10.088;2022-10-17T06:23:09;95964.38;;;8.02;74.47
75166;BME280;63747;48.042;10.088;2022-10-17T06:26:10;95961.31;;;8.06;74.52
75166;BME280;63747;48.042;10.088;2022-10-17T06:29:10;95959.66;;;8.15;74.58
75166;BME280;63747;48.042;10.088;2022-10-17T06:32:11;95961.59;;;8.23;74.45
75166;BME280;63747;48.042;10.088;2022-10-17T06:35:12;95980.63;;;8.26;74.58
75166;BME280;63747;48.042;10.088;2022-10-17T06:38:12;95976.34;;;8.35;74.76
75166;BME280;63747;48.042;10.088;2022-10-17T06:41:14;95980.34;;;8.49;74.68
75166;BME280;63747;48.042;10.088;2022-10-17T06:44:17;95964.88;;;8.54;74.79
75166;BME280;63747;48.042;10.088;2022-10-17T06:47:18;95983.50;;;8.71;74.68
75166;BME280;63747;48.042;10.088;2022-10-17T06:50:19;95988.31;;;8.86;74.60
75166;BME280;63747;48.042;10.088;2022-10-17T06:53:19;95988.84;;;8.99;74.47
75166;BME280;63747;48.042;10.088;2022-10-17T06:56:21;95997.97;;;9.14;74.37
75166;BME280;63747;48.042;10.088;2022-10-17T06:59:21;95986.94;;;9.29;74.11
75166;BME280;63747;48.042;10.088;2022-10-17T07:02:22;95996.22;;;9.42;73.96
75166;BME280;63747;48.042;10.088;2022-10-17T07:05:23;95998.50;;;9.55;73.57
75166;BME280;63747;48.042;10.088;2022-10-17T07:08:24;95999.69;;;9.70;73.38
75166;BME280;63747;48.042;10.088;2022-10-17T07:11:25;96008.63;;;9.87;73.41
75166;BME280;63747;48.042;10.088;2022-10-17T07:14:26;96008.81;;;10.03;72.64
75166;BME280;63747;48.042;10.088;2022-10-17T07:17:31;95995.72;;;10.20;72.38
75166;BME280;63747;48.042;10.088;2022-10-17T07:20:32;96004.63;;;10.37;71.91
75166;BME280;63747;48.042;10.088;2022-10-17T07:23:35;96012.13;;;10.59;71.82
75166;BME280;63747;48.042;10.088;2022-10-17T07:26:36;96020.06;;;10.77;71.75
75166;BME280;63747;48.042;10.088;2022-10-17T07:29:36;96021.41;;;10.99;71.49
75166;BME280;63747;48.042;10.088;2022-10-17T07:32:37;96022.66;;;11.12;71.07
75166;BME280;63747;48.042;10.088;2022-10-17T07:35:38;96024.03;;;11.25;71.08
75166;BME280;63747;48.042;10.088;2022-10-17T07:38:40;96020.81;;;11.39;70.59
75166;BME280;63747;48.042;10.088;2022-10-17T07:41:41;96021.50;;;11.49;70.69
75166;BME280;63747;48.042;10.088;2022-10-17T07:44:42;96022.94;;;11.69;70.45
75166;BME280;63747;48.042;10.088;2022-10-17T07:47:45;96025.50;;;11.87;70.19
75166;BME280;63747;48.042;10.088;2022-10-17T07:50:45;96022.72;;;12.05;70.03
75166;BME280;63747;48.042;10.088;2022-10-17T07:53:46;96033.41;;;12.21;69.55
75166;BME280;63747;48.042;10.088;2022-10-17T07:56:47;96028.75;;;12.32;69.36
75166;BME280;63747;48.042;10.088;2022-10-17T07:59:50;96028.81;;;12.56;69.06
75166;BME280;63747;48.042;10.088;2022-10-17T08:02:53;96036.94;;;12.71;68.91
75166;BME280;63747;48.042;10.088;2022-10-17T08:05:57;96031.78;;;12.94;68.36
75166;BME280;63747;48.042;10.088;2022-10-17T08:08:58;96033.28;;;13.04;67.84
75166;BME280;63747;48.042;10.088;2022-10-17T08:12:03;96041.94;;;13.23;67.99
75166;BME280;63747;48.042;10.088;2022-10-17T08:15:05;96034.72;;;13.40;67.65
75166;BME280;63747;48.042;10.088;2022-10-17T08:18:06;96034.56;;;13.49;67.48
75166;BME280;63747;48.042;10.088;2022-10-17T08:21:07;96032.16;;;13.71;67.28
75166;BME280;63747;48.042;10.088;2022-10-17T08:24:08;96026.56;;;13.88;67.11
75166;BME280;63747;48.042;10.088;2022-10-17T08:27:09;96027.09;;;14.15;67.31
75166;BME280;63747;48.042;10.088;2022-10-17T08:30:14;96019.50;;;14.35;66.53
75166;BME280;63747;48.042;10.088;2022-10-17T08:33:15;96021.69;;;14.54;66.00
75166;BME280;63747;48.042;10.088;2022-10-17T08:36:18;96026.31;;;14.83;65.74
75166;BME280;63747;48.042;10.088;2022-10-17T08:39:19;96027.94;;;15.07;65.58
75166;BME280;63747;48.042;10.088;2022-10-17T08:46:01;96035.38;;;15.64;64.07
75166;BME280;63747;48.042;10.088;2022-10-17T08:49:06;96032.72;;;15.94;63.72
75166;BME280;63747;48.042;10.088;2022-10-17T08:52:20;96039.59;;;16.18;63.44
75166;BME280;63747;48.042;10.088;2022-10-17T08:55:49;96034.00;;;16.49;62.95
75166;BME280;63747;48.042;10.088;2022-10-17T08:58:50;96036.47;;;16.72;63.09
75166;BME280;63747;48.042;10.088;2022-10-17T09:02:00;96027.44;;;16.94;62.26
75166;BME280;63747;48.042;10.088;2022-10-17T09:08:48;96032.00;;;17.50;61.54
75166;BME280;63747;48.042;10.088;2022-10-17T09:18:49;96018.56;;;18.26;55.73
75166;BME280;63747;48.042;10.088;2022-10-17T09:21:57;96017.16;;;18.43;54.67
75166;BME280;63747;48.042;10.088;2022-10-17T09:25:03;96013.91;;;18.54;53.90
75166;BME280;63747;48.042;10.088;2022-10-17T09:31:20;96032.56;;;18.89;51.79
75166;BME280;63747;48.042;10.088;2022-10-17T09:34:23;96025.78;;;19.13;52.12
75166;BME280;63747;48.042;10.088;2022-10-17T09:37:30;96034.88;;;19.45;52.51
75166;BME280;63747;48.042;10.088;2022-10-17T09:40:33;96038.78;;;19.69;50.72
75166;BME280;63747;48.042;10.088;2022-10-17T09:43:34;96031.28;;;19.84;51.89
75166;BME280;63747;48.042;10.088;2022-10-17T09:46:35;96042.84;;;19.98;52.51
75166;BME280;63747;48.042;10.088;2022-10-17T09:49:39;96031.84;;;20.13;49.25
75166;BME280;63747;48.042;10.088;2022-10-17T09:52:42;96035.72;;;20.23;49.03
75166;BME280;63747;48.042;10.088;2022-10-17T09:55:54;96047.47;;;20.42;47.71
75166;BME280;63747;48.042;10.088;2022-10-17T09:58:56;96048.66;;;20.53;48.31
75166;BME280;63747;48.042;10.088;2022-10-17T10:02:20;96046.03;;;20.78;48.26
75166;BME280;63747;48.042;10.088;2022-10-17T10:05:21;96051.03;;;20.74;47.90
75166;BME280;63747;48.042;10.088;2022-10-17T10:08:22;96053.63;;;20.94;49.96
75166;BME280;63747;48.042;10.088;2022-10-17T10:14:46;96061.03;;;21.30;47.05
75166;BME280;63747;48.042;10.088;2022-10-17T10:17:47;96056.59;;;21.42;47.19
75166;BME280;63747;48.042;10.088;2022-10-17T10:21:12;96049.72;;;21.65;46.83
75166;BME280;63747;48.042;10.088;2022-10-17T10:24:13;96057.44;;;21.86;46.51
75166;BME280;63747;48.042;10.088;2022-10-17T10:27:15;96062.94;;;21.98;46.32
75166;BME280;63747;48.042;10.088;2022-10-17T10:30:19;96053.31;;;22.02;45.69
75166;BME280;63747;48.042;10.088;2022-10-17T10:33:25;96061.66;;;22.19;45.06
75166;BME280;63747;48.042;10.088;2022-10-17T10:39:52;96065.50;;;22.30;43.92
75166;BME280;63747;48.042;10.088;2022-10-17T10:42:57;96066.00;;;22.38;44.53
75166;BME280;63747;48.042;10.088;2022-10-17T10:46:00;96062.41;;;22.44;43.05
75166;BME280;63747;48.042;10.088;2022-10-17T10:49:02;96064.25;;;22.62;44.10
75166;BME280;63747;48.042;10.088;2022-10-17T10:52:03;96059.66;;;22.81;43.04
75166;BME280;63747;48.042;10.088;2022-10-17T10:55:27;96066.09;;;22.80;43.61
75166;BME280;63747;48.042;10.088;2022-10-17T10:58:52;96068.44;;;22.76;42.07
75166;BME280;63747;48.042;10.088;2022-10-17T11:02:10;96068.56;;;22.81;42.24
75166;BME280;63747;48.042;10.088;2022-10-17T11:05:51;96058.78;;;22.99;42.77
75166;BME280;63747;48.042;10.088;2022-10-17T11:12:16;96058.19;;;23.08;42.80
75166;BME280;63747;48.042;10.088;2022-10-17T11:21:40;96053.00;;;23.37;42.29
75166;BME280;63747;48.042;10.088;2022-10-17T11:24:59;96048.66;;;23.48;43.35
75166;BME280;63747;48.042;10.088;2022-10-17T11:28:11;96047.50;;;23.79;42.86
75166;BME280;63747;48.042;10.088;2022-10-17T11:31:36;96052.59;;;23.99;43.29
75166;BME280;63747;48.042;10.088;2022-10-17T11:34:44;96061.63;;;24.04;43.18
75166;BME280;63747;48.042;10.088;2022-10-17T11:37:50;96060.56;;;23.58;44.06
75166;BME280;63747;48.042;10.088;2022-10-17T11:40:56;96046.34;;;23.21;44.52
75166;BME280;63747;48.042;10.088;2022-10-17T11:44:06;96054.94;;;23.18;45.44
75166;BME280;63747;48.042;10.088;2022-10-17T11:50:27;96051.72;;;23.09;45.65
75166;BME280;63747;48.042;10.088;2022-10-17T12:03:54;96053.56;;;22.86;46.60
75166;BME280;63747;48.042;10.088;2022-10-17T12:19:30;96038.09;;;23.04;45.20
75166;BME280;63747;48.042;10.088;2022-10-17T12:22:32;96049.81;;;23.28;46.29
75166;BME280;63747;48.042;10.088;2022-10-17T12:25:35;96041.94;;;23.50;45.18
75166;BME280;63747;48.042;10.088;2022-10-17T12:31:39;96040.44;;;23.54;45.60
75166;BME280;63747;48.042;10.088;2022-10-17T12:34:50;96037.72;;;23.54;45.79
75166;BME280;63747;48.042;10.088;2022-10-17T12:40:58;96036.91;;;23.66;45.70
75166;BME280;63747;48.042;10.088;2022-10-17T12:43:59;96041.13;;;23.61;44.60
75166;BME280;63747;48.042;10.088;2022-10-17T12:54:12;96035.16;;;23.59;44.96
75166;BME280;63747;48.042;10.088;2022-10-17T13:00:54;96033.47;;;23.70;43.44
75166;BME280;63747;48.042;10.088;2022-10-17T13:03:57;96033.16;;;23.78;43.01
75166;BME280;63747;48.042;10.088;2022-10-17T13:07:02;96039.59;;;23.89;43.26
75166;BME280;63747;48.042;10.088;2022-10-17T13:10:03;96032.56;;;24.00;42.82
75166;BME280;63747;48.042;10.088;2022-10-17T13:13:11;96027.28;;;23.93;43.14
75166;BME280;63747;48.042;10.088;2022-10-17T13:16:31;96032.09;;;23.91;43.50
75166;BME280;63747;48.042;10.088;2022-10-17T13:19:43;96022.16;;;23.85;42.50
75166;BME280;63747;48.042;10.088;2022-10-17T13:22:44;96020.53;;;23.84;42.10
75166;BME280;63747;48.042;10.088;2022-10-17T13:25:46;96031.25;;;23.79;42.03
75166;BME280;63747;48.042;10.088;2022-10-17T13:29:10;96034.91;;;23.73;42.87
75166;BME280;63747;48.042;10.088;2022-10-17T13:32:11;96037.84;;;23.48;42.22
75166;BME280;63747;48.042;10.088;2022-10-17T13:35:14;96030.53;;;23.36;42.46
75166;BME280;63747;48.042;10.088;2022-10-17T13:38:23;96032.31;;;23.54;42.61
75166;BME280;63747;48.042;10.088;2022-10-17T13:41:27;96034.28;;;23.71;42.12
75166;BME280;63747;48.042;10.088;2022-10-17T13:44:32;96037.38;;;23.74;42.55
75166;BME280;63747;48.042;10.088;2022-10-17T13:47:36;96035.59;;;23.56;41.53
75166;BME280;63747;48.042;10.088;2022-10-17T13:50:40;96034.75;;;23.44;41.73
75166;BME280;63747;48.042;10.088;2022-10-17T13:53:41;96048.16;;;23.27;42.15
75166;BME280;63747;48.042;10.088;2022-10-17T13:56:43;96043.75;;;23.15;42.26
75166;BME280;63747;48.042;10.088;2022-10-17T13:59:45;96038.53;;;23.01;42.22
75166;BME280;63747;48.042;10.088;2022-10-17T14:02:54;96027.94;;;22.88;43.09
75166;BME280;63747;48.042;10.088;2022-10-17T14:06:07;96034.19;;;23.00;43.18
75166;BME280;63747;48.042;10.088;2022-10-17T14:09:24;96039.00;;;23.40;43.69
75166;BME280;63747;48.042;10.088;2022-10-17T14:12:26;96036.31;;;23.63;43.23
75166;BME280;63747;48.042;10.088;2022-10-17T14:15:29;96035.72;;;23.73;43.71
75166;BME280;63747;48.042;10.088;2022-10-17T14:18:39;96037.63;;;23.73;43.11
75166;BME280;63747;48.042;10.088;2022-10-17T14:21:47;96028.78;;;23.66;43.07
75166;BME280;63747;48.042;10.088;2022-10-17T14:24:49;96033.50;;;23.58;43.37
75166;BME280;63747;48.042;10.088;2022-10-17T14:31:18;96030.91;;;22.98;44.29
75166;BME280;63747;48.042;10.088;2022-10-17T14:34:29;96030.06;;;22.86;43.75
75166;BME280;63747;48.042;10.088;2022-10-17T14:40:32;96035.28;;;22.51;44.83
75166;BME280;63747;48.042;10.088;2022-10-17T14:43:34;96030.34;;;22.66;44.77
75166;BME280;63747;48.042;10.088;2022-10-17T14:54:28;96024.63;;;22.86;45.30
75166;BME280;63747;48.042;10.088;2022-10-17T15:00:33;96036.19;;;22.93;45.76
75166;BME280;63747;48.042;10.088;2022-10-17T15:03:34;96024.16;;;22.89;45.99
75166;BME280;63747;48.042;10.088;2022-10-17T15:06:35;96025.56;;;22.80;46.18
75166;BME280;63747;48.042;10.088;2022-10-17T15:09:36;96033.63;;;22.68;46.46
75166;BME280;63747;48.042;10.088;2022-10-17T15:12:36;96026.31;;;22.57;46.94
75166;BME280;63747;48.042;10.088;2022-10-17T15:15:38;96030.56;;;22.46;46.95
75166;BME280;63747;48.042;10.088;2022-10-17T15:18:39;96027.72;;;22.41;47.23
75166;BME280;63747;48.042;10.088;2022-10-17T15:25:37;96042.91;;;22.24;47.94
75166;BME280;63747;48.042;10.088;2022-10-17T15:28:38;96049.78;;;22.01;47.83
75166;BME280;63747;48.042;10.088;2022-10-17T15:35:35;96050.19;;;21.62;49.01
75166;BME280;63747;48.042;10.088;2022-10-17T15:42:33;96054.09;;;21.41;50.27
75166;BME280;63747;48.042;10.088;2022-10-17T15:45:34;96055.38;;;21.38;50.61
75166;BME280;63747;48.042;10.088;2022-10-17T15:48:35;96049.19;;;21.31;50.95
75166;BME280;63747;48.042;10.088;2022-10-17T15:51:36;96050.25;;;21.30;51.47
75166;BME280;63747;48.042;10.088;2022-10-17T15:58:36;96035.25;;;20.78;51.64
75166;BME280;63747;48.042;10.088;2022-10-17T16:05:34;96052.56;;;20.57;52.59
75166;BME280;63747;48.042;10.088;2022-10-17T16:12:32;96055.94;;;20.46;54.29
75166;BME280;63747;48.042;10.088;2022-10-17T16:15:37;96066.03;;;19.99;54.62
75166;BME280;63747;48.042;10.088;2022-10-17T16:18:37;96078.91;;;19.77;55.62
75166;BME280;63747;48.042;10.088;2022-10-17T16:25:24;96077.06;;;19.64;56.63
75166;BME280;63747;48.042;10.088;2022-10-17T16:28:25;96077.25;;;19.49;56.58
75166;BME280;63747;48.042;10.088;2022-10-17T16:31:51;96080.97;;;19.28;56.63
75166;BME280;63747;48.042;10.088;2022-10-17T16:34:52;96090.69;;;19.10;57.28
75166;BME280;63747;48.042;10.088;2022-10-17T16:37:53;96093.16;;;18.91;57.29
75166;BME280;63747;48.042;10.088;2022-10-17T16:40:55;96095.56;;;18.73;58.15
75166;BME280;63747;48.042;10.088;2022-10-17T16:43:57;96094.50;;;18.67;57.96
75166;BME280;63747;48.042;10.088;2022-10-17T16:46:58;96099.69;;;18.75;57.85
75166;BME280;63747;48.042;10.088;2022-10-17T16:53:36;96096.53;;;18.59;58.19
75166;BME280;63747;48.042;10.088;2022-10-17T16:56:39;96095.28;;;18.55;57.80
75166;BME280;63747;48.042;10.088;2022-10-17T16:59:41;96096.72;;;18.44;58.20
75166;BME280;63747;48.042;10.088;2022-10-17T17:02:42;96099.34;;;18.31;57.95
75166;BME280;63747;48.042;10.088;2022-10-17T17:05:49;96100.34;;;18.23;58.59
75166;BME280;63747;48.042;10.088;2022-10-17T17:08:50;96107.09;;;18.12;58.63
75166;BME280;63747;48.042;10.088;2022-10-17T17:11:51;96108.03;;;17.98;58.55
75166;BME280;63747;48.042;10.088;2022-10-17T17:14:52;96112.28;;;17.92;58.88
75166;BME280;63747;48.042;10.088;2022-10-17T17:17:52;96114.28;;;17.77;59.00
75166;BME280;63747;48.042;10.088;2022-10-17T17:21:02;96105.53;;;17.68;59.22
75166;BME280;63747;48.042;10.088;2022-10-17T17:28:01;96108.25;;;17.47;60.15
75166;BME280;63747;48.042;10.088;2022-10-17T17:31:06;96106.13;;;17.36;60.54
75166;BME280;63747;48.042;10.088;2022-10-17T17:34:07;96100.06;;;17.27;60.87
75166;BME280;63747;48.042;10.088;2022-10-17T17:40:46;96111.97;;;17.03;61.24
75166;BME280;63747;48.042;10.088;2022-10-17T17:47:43;96117.00;;;16.92;61.55
75166;BME280;63747;48.042;10.088;2022-10-17T17:54:40;96120.91;;;16.68;61.76
75166;BME280;63747;48.042;10.088;2022-10-17T17:58:01;96119.88;;;16.69;61.98
75166;BME280;63747;48.042;10.088;2022-10-17T18:01:09;96123.78;;;16.51;61.98
75166;BME280;63747;48.042;10.088;2022-10-17T18:04:10;96125.66;;;16.36;62.46
75166;BME280;63747;48.042;10.088;2022-10-17T18:11:09;96123.19;;;16.20;62.62
75166;BME280;63747;48.042;10.088;2022-10-17T18:14:11;96126.28;;;16.09;62.57
75166;BME280;63747;48.042;10.088;2022-10-17T18:21:10;96133.03;;;15.90;62.84
75166;BME280;63747;48.042;10.088;2022-10-17T18:28:08;96142.78;;;15.68;63.23
75166;BME280;63747;48.042;10.088;2022-10-17T18:31:17;96145.78;;;15.65;63.12
75166;BME280;63747;48.042;10.088;2022-10-17T18:38:18;96149.34;;;15.42;63.24
75166;BME280;63747;48.042;10.088;2022-10-17T18:45:15;96161.47;;;15.30;63.46
75166;BME280;63747;48.042;10.088;2022-10-17T18:48:16;96155.88;;;15.17;63.89
75166;BME280;63747;48.042;10.088;2022-10-17T18:55:15;96169.47;;;15.07;63.93
75166;BME280;63747;48.042;10.088;2022-10-17T19:02:15;96171.78;;;14.87;64.11
75166;BME280;63747;48.042;10.088;2022-10-17T19:09:14;96168.19;;;14.72;64.92
75166;BME280;63747;48.042;10.088;2022-10-17T19:12:24;96179.91;;;14.63;65.26
75166;BME280;63747;48.042;10.088;2022-10-17T19:15:25;96173.59;;;14.56;65.09
75166;BME280;63747;48.042;10.088;2022-10-17T19:18:38;96181.59;;;14.56;65.43
75166;BME280;63747;48.042;10.088;2022-10-17T19:21:47;96174.47;;;14.48;65.08
75166;BME280;63747;48.042;10.088;2022-10-17T19:24:56;96190.03;;;14.36;65.67
75166;BME280;63747;48.042;10.088;2022-10-17T19:27:57;96176.72;;;14.28;65.52
75166;BME280;63747;48.042;10.088;2022-10-17T19:30:58;96186.56;;;14.28;65.89
75166;BME280;63747;48.042;10.088;2022-10-17T19:33:59;96179.09;;;14.23;65.80
75166;BME280;63747;48.042;10.088;2022-10-17T19:37:00;96181.91;;;14.13;65.92
75166;BME280;63747;48.042;10.088;2022-10-17T19:40:02;96184.13;;;14.10;66.13
75166;BME280;63747;48.042;10.088;2022-10-17T19:43:03;96180.94;;;14.06;66.41